createdAt,value
2022-10-23T11:01:27.624Z,18.30
2022-10-23T11:04:18.166Z,21.40
2022-10-23T11:06:49.030Z,23.00
2022-10-23T11:09:25.560Z,24.50
2022-10-23T11:11:54.400Z,25.40
2022-10-23T11:14:26.863Z,24.30
2022-10-23T11:17:02.921Z,24.00
2022-10-23T11:19:58.722Z,23.90
2022-10-23T11:22:52.877Z,23.10
2022-10-23T11:25:59.621Z,23.00
2022-10-23T11:29:14.996Z,23.10
2022-10-23T15:37:37.230Z,23.80
2022-10-23T15:40:04.433Z,21.60
2022-10-23T15:42:31.248Z,20.30
2022-10-23T15:44:57.892Z,19.50
2022-10-23T15:47:24.652Z,19.10
2022-10-23T15:49:51.346Z,18.80
2022-10-23T15:52:18.077Z,18.60
2022-10-23T15:54:45.162Z,18.40
2022-10-23T15:57:12.170Z,18.20
2022-10-23T15:59:39.092Z,18.10
2022-10-23T16:02:06.026Z,18.00
2022-10-23T16:04:34.149Z,17.90
2022-10-23T16:07:00.899Z,17.80
2022-10-23T16:09:28.645Z,17.70
2022-10-23T16:11:55.381Z,17.70
2022-10-23T16:14:22.101Z,17.70
2022-10-23T16:16:48.775Z,17.60
2022-10-23T16:19:15.505Z,17.60
2022-10-23T16:21:42.353Z,17.60
2022-10-23T16:24:09.777Z,17.50
2022-10-23T16:26:39.724Z,17.50
2022-10-23T16:29:09.069Z,17.50
2022-10-23T16:31:35.840Z,17.50
2022-10-23T16:34:06.058Z,17.50
2022-10-23T16:36:37.209Z,17.50
2022-10-23T16:39:04.136Z,17.60
2022-10-23T16:41:32.205Z,17.70
2022-10-23T16:43:58.932Z,17.60
2022-10-23T16:46:25.693Z,17.70
2022-10-23T16:48:52.678Z,17.70
2022-10-23T16:51:23.033Z,17.90
2022-10-23T16:53:50.045Z,17.90
2022-10-23T16:56:19.031Z,18.00
2022-10-23T16:58:46.005Z,18.10
2022-10-23T17:01:16.403Z,18.20
2022-10-23T17:03:47.769Z,18.20
2022-10-23T17:06:17.728Z,18.20
2022-10-23T17:08:45.520Z,18.30
2022-10-23T17:11:16.629Z,18.30
2022-10-23T17:13:45.751Z,18.30
2022-10-23T17:16:15.794Z,18.40
2022-10-23T17:18:44.220Z,18.30
2022-10-23T17:21:12.430Z,18.30
2022-10-23T17:23:39.193Z,18.30
2022-10-23T17:26:12.279Z,18.30
2022-10-23T17:28:43.316Z,18.20
2022-10-23T17:31:18.858Z,17.90
2022-10-23T17:33:46.809Z,17.60
2022-10-23T17:36:16.490Z,17.40
2022-10-23T17:38:43.649Z,17.20
2022-10-23T17:41:13.008Z,16.90
2022-10-23T17:43:40.132Z,16.50
2022-10-23T17:46:09.039Z,16.30
2022-10-23T17:48:35.862Z,16.20
2022-10-23T17:51:08.945Z,16.00
2022-10-23T17:53:38.307Z,16.00
2022-10-23T17:56:07.458Z,16.00
2022-10-23T17:58:34.731Z,16.00
2022-10-23T18:01:10.366Z,15.90
2022-10-23T18:03:37.900Z,15.90
2022-10-23T18:06:09.127Z,15.90
2022-10-23T18:08:40.309Z,15.80
2022-10-23T18:11:08.051Z,15.80
2022-10-23T18:13:36.418Z,15.90
2022-10-23T18:16:05.098Z,15.90
2022-10-23T18:18:32.064Z,15.90
2022-10-23T18:20:59.780Z,15.80
2022-10-23T18:23:27.994Z,15.80
2022-10-23T18:25:55.098Z,15.90
2022-10-23T18:28:22.073Z,15.90
2022-10-23T18:30:54.668Z,15.90
2022-10-23T18:33:26.929Z,15.90
2022-10-23T18:35:53.802Z,15.90
2022-10-23T18:38:23.477Z,15.80
2022-10-23T18:40:55.127Z,15.90
2022-10-23T18:43:41.963Z,15.80
2022-10-23T18:46:10.126Z,15.80
2022-10-23T18:48:36.856Z,15.90
2022-10-23T18:51:03.577Z,16.00
2022-10-23T18:53:30.352Z,16.10
2022-10-23T18:55:57.095Z,16.20
2022-10-23T18:58:24.699Z,16.20
2022-10-23T19:00:51.509Z,16.40
2022-10-23T19:03:18.237Z,16.50
2022-10-23T19:05:46.496Z,16.50
2022-10-23T19:08:13.308Z,16.60
2022-10-23T19:10:42.362Z,16.60
2022-10-23T19:13:09.281Z,16.60
2022-10-23T19:15:39.541Z,16.60
2022-10-23T19:18:08.438Z,16.90
2022-10-23T19:20:35.816Z,17.00
2022-10-23T19:23:05.254Z,17.10
2022-10-23T19:25:33.871Z,17.20
2022-10-23T19:28:04.818Z,17.30
2022-10-23T19:30:32.135Z,17.50
2022-10-23T19:32:59.687Z,17.60
2022-10-23T19:35:26.491Z,17.70
2022-10-23T19:37:53.384Z,17.90
2022-10-23T19:40:20.450Z,18.00
2022-10-23T19:42:47.813Z,17.60
2022-10-23T19:45:15.275Z,17.20
2022-10-23T19:47:47.678Z,16.90
2022-10-23T19:50:14.563Z,16.60
2022-10-23T19:52:41.229Z,16.50
2022-10-23T19:55:08.884Z,16.40
2022-10-23T19:57:37.140Z,16.20
2022-10-23T20:00:06.792Z,16.20
2022-10-23T20:05:08.740Z,16.30
2022-10-23T20:07:37.134Z,16.50
2022-10-23T20:10:08.325Z,16.40
2022-10-23T20:12:35.135Z,16.40
2022-10-23T20:15:01.945Z,16.80
2022-10-23T20:17:28.822Z,16.60
2022-10-23T20:19:56.468Z,16.70
2022-10-23T20:22:23.824Z,17.40
2022-10-23T20:24:50.800Z,17.80
2022-10-23T20:27:18.553Z,17.40
2022-10-23T20:29:46.610Z,17.60
2022-10-23T20:32:15.761Z,17.80
2022-10-23T20:34:45.579Z,18.00
2022-10-23T20:37:15.163Z,18.30
2022-10-23T20:39:42.985Z,18.50
2022-10-23T20:42:09.855Z,18.80
2022-10-23T20:44:36.854Z,18.80
2022-10-23T20:47:04.294Z,18.80
2022-10-23T20:49:31.087Z,19.10
2022-10-23T20:51:57.867Z,19.10
